createdAt,value
2022-12-13T00:02:26.369Z,100.00
2022-12-13T00:04:54.071Z,100.00
2022-12-13T00:07:26.749Z,100.00
2022-12-13T00:09:54.183Z,100.00
2022-12-13T00:13:05.684Z,100.00
2022-12-13T00:15:34.069Z,100.00
2022-12-13T00:18:03.916Z,100.00
2022-12-13T00:20:31.298Z,100.00
2022-12-13T00:22:58.393Z,100.00
2022-12-13T00:25:28.061Z,100.00
2022-12-13T00:27:54.997Z,100.00
2022-12-13T00:30:22.300Z,100.00
2022-12-13T00:32:51.709Z,100.00
2022-12-13T00:35:18.688Z,100.00
2022-12-13T00:37:45.694Z,100.00
2022-12-13T00:40:18.299Z,100.00
2022-12-13T00:42:48.218Z,100.00
2022-12-13T00:45:15.710Z,100.00
2022-12-13T00:47:43.335Z,100.00
2022-12-13T00:50:10.769Z,100.00
2022-12-13T00:52:40.341Z,100.00
2022-12-13T00:55:10.011Z,100.00
2022-12-13T00:57:38.048Z,100.00
2022-12-13T01:00:08.320Z,100.00
2022-12-13T01:06:19.374Z,100.00
2022-12-13T01:10:23.375Z,100.00
2022-12-13T01:11:59.887Z,100.00
2022-12-13T01:21:12.348Z,100.00
2022-12-13T01:23:42.866Z,100.00
2022-12-13T01:26:15.862Z,100.00
2022-12-13T01:28:43.020Z,100.00
2022-12-13T01:31:12.675Z,100.00
2022-12-13T01:34:00.130Z,100.00
2022-12-13T01:36:38.148Z,100.00
2022-12-13T01:39:27.995Z,100.00
2022-12-13T01:42:03.473Z,100.00
2022-12-13T01:45:08.782Z,100.00
2022-12-13T01:47:51.978Z,100.00
2022-12-13T01:50:48.444Z,100.00
2022-12-13T01:53:47.850Z,100.00
2022-12-13T01:56:23.555Z,100.00
2022-12-13T01:58:55.475Z,100.00
2022-12-13T02:01:23.366Z,100.00
2022-12-13T02:03:50.536Z,100.00
2022-12-13T02:06:36.967Z,100.00
2022-12-13T02:09:07.185Z,100.00
2022-12-13T02:11:46.977Z,100.00
2022-12-13T02:14:34.469Z,100.00
2022-12-13T02:17:45.560Z,100.00
2022-12-13T02:21:01.881Z,100.00
2022-12-13T02:24:17.690Z,100.00
2022-12-13T02:27:03.520Z,100.00
2022-12-13T02:33:01.256Z,100.00
2022-12-13T02:35:49.054Z,100.00
2022-12-13T02:39:02.766Z,100.00
2022-12-13T02:46:04.438Z,100.00
2022-12-13T02:57:23.501Z,100.00
2022-12-13T03:04:01.166Z,100.00
2022-12-13T03:07:14.463Z,100.00
2022-12-13T03:10:02.764Z,100.00
2022-12-13T03:12:58.831Z,100.00
2022-12-13T03:15:51.280Z,100.00
2022-12-13T03:18:24.795Z,100.00
2022-12-13T03:21:09.819Z,100.00
2022-12-13T03:23:41.154Z,100.00
2022-12-13T03:26:29.875Z,100.00
2022-12-13T03:30:42.605Z,100.00
2022-12-13T03:32:05.858Z,100.00
2022-12-13T03:35:12.425Z,100.00
2022-12-13T03:43:03.494Z,100.00
2022-12-13T03:46:16.558Z,100.00
2022-12-13T03:50:26.088Z,100.00
2022-12-13T03:53:33.227Z,100.00
2022-12-13T03:56:27.237Z,100.00
2022-12-13T04:00:27.695Z,100.00
2022-12-13T04:05:12.372Z,100.00
2022-12-13T04:11:42.783Z,100.00
2022-12-13T04:14:11.313Z,100.00
2022-12-13T04:17:21.041Z,100.00
2022-12-13T04:20:11.628Z,100.00
2022-12-13T04:22:47.178Z,100.00
2022-12-13T04:25:22.640Z,100.00
2022-12-13T04:28:06.566Z,100.00
2022-12-13T04:34:21.829Z,100.00
2022-12-13T04:36:53.645Z,100.00
2022-12-13T04:42:54.595Z,100.00
2022-12-13T04:45:23.389Z,100.00
2022-12-13T04:47:59.562Z,100.00
2022-12-13T04:50:26.858Z,100.00
2022-12-13T04:52:54.072Z,100.00
2022-12-13T04:55:21.298Z,100.00
2022-12-13T04:57:59.089Z,100.00
2022-12-13T05:00:36.179Z,100.00
2022-12-13T05:03:05.713Z,100.00
2022-12-13T05:05:41.879Z,100.00
2022-12-13T05:08:25.191Z,100.00
2022-12-13T05:11:00.074Z,100.00
2022-12-13T05:14:29.116Z,100.00
2022-12-13T05:16:43.119Z,100.00
2022-12-13T05:19:15.783Z,100.00
2022-12-13T05:22:02.775Z,100.00
2022-12-13T05:24:32.128Z,100.00
2022-12-13T05:26:59.450Z,100.00
2022-12-13T05:32:49.504Z,100.00
2022-12-13T05:35:27.625Z,100.00
2022-12-13T05:37:55.399Z,100.00
2022-12-13T05:40:30.409Z,100.00
2022-12-13T05:43:01.985Z,100.00
2022-12-13T05:51:09.862Z,100.00
2022-12-13T05:53:42.198Z,100.00
2022-12-13T05:56:11.547Z,100.00
2022-12-13T15:37:28.094Z,100.00
2022-12-13T15:40:05.060Z,100.00
2022-12-13T15:42:44.435Z,100.00
2022-12-13T15:45:36.603Z,100.00
2022-12-13T15:48:04.818Z,100.00
2022-12-13T15:50:43.864Z,100.00
2022-12-13T15:53:28.337Z,100.00
2022-12-13T15:55:57.640Z,100.00
2022-12-13T15:58:37.962Z,100.00
2022-12-13T16:01:08.807Z,100.00
2022-12-13T16:03:47.281Z,100.00
2022-12-13T16:06:22.818Z,100.00
2022-12-13T16:08:57.104Z,100.00
2022-12-13T16:11:30.930Z,100.00
2022-12-13T16:14:26.619Z,100.00
2022-12-13T16:16:55.425Z,100.00
2022-12-13T16:19:26.849Z,100.00
2022-12-13T16:21:58.697Z,100.00
2022-12-13T16:24:26.909Z,100.00
2022-12-13T16:27:08.334Z,100.00
2022-12-13T16:29:39.477Z,100.00
2022-12-13T16:32:18.603Z,100.00
2022-12-13T16:34:45.945Z,100.00
2022-12-13T16:37:26.210Z,100.00
2022-12-13T16:39:54.897Z,100.00
2022-12-13T16:42:29.476Z,100.00
2022-12-13T17:25:30.185Z,100.00
2022-12-13T17:28:04.974Z,100.00
2022-12-13T17:30:40.241Z,100.00
2022-12-13T17:33:15.525Z,100.00
2022-12-13T17:38:25.281Z,100.00
2022-12-13T17:41:05.428Z,100.00
2022-12-13T17:43:38.382Z,100.00
2022-12-13T17:46:13.924Z,100.00
2022-12-13T17:48:41.694Z,100.00
2022-12-13T17:54:19.860Z,100.00
2022-12-13T17:56:47.458Z,100.00
2022-12-13T17:59:23.883Z,100.00
2022-12-13T18:01:51.313Z,100.00
2022-12-13T18:04:18.340Z,100.00
2022-12-13T18:06:54.768Z,100.00
2022-12-13T18:10:05.864Z,100.00
2022-12-13T18:12:38.954Z,100.00
2022-12-13T18:15:06.792Z,100.00
2022-12-13T18:21:06.040Z,95.13
2022-12-13T18:55:17.254Z,100.00
2022-12-13T18:57:45.406Z,100.00
2022-12-13T19:00:12.687Z,100.00
2022-12-13T19:02:39.813Z,100.00
2022-12-13T19:05:06.791Z,100.00
2022-12-13T19:07:33.870Z,100.00
2022-12-13T19:10:08.954Z,100.00
2022-12-13T19:12:41.550Z,100.00
2022-12-13T19:15:08.740Z,100.00
2022-12-13T19:17:36.648Z,100.00
2022-12-13T19:20:03.902Z,100.00
2022-12-13T19:22:30.849Z,100.00
2022-12-13T19:24:57.732Z,100.00
2022-12-13T19:27:24.624Z,100.00
2022-12-13T19:29:54.246Z,100.00
2022-12-13T19:32:26.247Z,100.00
2022-12-13T19:34:53.357Z,100.00
2022-12-13T19:37:22.528Z,97.81
2022-12-13T19:39:58.003Z,94.63
2022-12-13T19:42:25.323Z,94.67
2022-12-13T19:44:52.689Z,94.21
2022-12-13T19:47:21.511Z,93.77
2022-12-13T19:49:48.468Z,93.60
2022-12-13T19:52:15.450Z,92.71
2022-12-13T19:54:42.939Z,91.94
2022-12-13T19:57:10.103Z,92.01
2022-12-13T19:59:36.997Z,91.32
2022-12-13T20:02:06.327Z,90.29
2022-12-13T20:04:36.327Z,89.68
2022-12-13T20:07:03.591Z,86.78
2022-12-13T20:09:30.626Z,85.63
2022-12-13T20:11:57.861Z,86.84
2022-12-13T20:14:25.418Z,87.84
2022-12-13T20:16:54.076Z,88.85
2022-12-13T20:19:21.318Z,89.23
2022-12-13T20:21:53.569Z,90.19
2022-12-13T20:24:23.792Z,88.93
2022-12-13T20:26:51.039Z,86.89
2022-12-13T20:29:19.262Z,85.07
2022-12-13T20:31:48.362Z,84.43
2022-12-13T20:34:16.333Z,87.06
2022-12-13T20:36:43.236Z,86.67
2022-12-13T20:39:13.058Z,87.49
2022-12-13T20:41:40.186Z,88.64
2022-12-13T20:44:09.173Z,90.07
2022-12-13T20:46:36.935Z,91.24
2022-12-13T20:49:06.371Z,92.18
2022-12-13T20:51:34.507Z,95.68
2022-12-13T20:54:01.987Z,99.53
2022-12-13T20:56:35.369Z,100.00
2022-12-13T20:59:04.101Z,100.00
2022-12-13T21:01:35.198Z,100.00
2022-12-13T21:04:05.721Z,100.00
2022-12-13T21:06:34.588Z,100.00
2022-12-13T21:09:03.115Z,100.00
2022-12-13T21:11:36.135Z,100.00
2022-12-13T21:14:11.000Z,100.00
2022-12-13T21:16:44.681Z,100.00
2022-12-13T21:19:15.838Z,100.00
2022-12-13T21:21:43.088Z,100.00
2022-12-13T21:24:15.008Z,100.00
2022-12-13T21:26:43.090Z,100.00
2022-12-13T21:29:11.628Z,98.68
2022-12-13T21:31:40.619Z,98.61
2022-12-13T21:34:08.130Z,100.00
2022-12-13T21:36:37.642Z,100.00
2022-12-13T21:39:08.054Z,100.00
2022-12-13T21:41:35.291Z,100.00
2022-12-13T21:44:02.204Z,100.00
2022-12-13T21:46:54.814Z,100.00
2022-12-13T21:49:17.570Z,100.00
2022-12-13T21:51:47.901Z,99.87
2022-12-13T21:54:15.193Z,100.00
2022-12-13T21:57:17.228Z,99.13
2022-12-13T21:59:44.053Z,97.58
2022-12-13T22:02:17.097Z,96.19
2022-12-13T22:04:51.680Z,95.98
2022-12-13T22:07:30.410Z,96.12
2022-12-13T22:09:59.342Z,96.01
2022-12-13T22:12:32.837Z,96.93
2022-12-13T22:17:49.875Z,99.00
2022-12-13T22:20:41.361Z,98.56
2022-12-13T22:23:17.545Z,97.44
2022-12-13T22:26:07.496Z,99.37
2022-12-13T22:28:40.304Z,99.48
2022-12-13T22:31:07.389Z,98.95
2022-12-13T22:33:34.160Z,99.49
2022-12-13T22:36:01.880Z,100.00
2022-12-13T22:38:32.164Z,99.95
2022-12-13T22:45:04.108Z,100.00
2022-12-13T22:47:31.004Z,100.00
2022-12-13T22:50:09.121Z,100.00
2022-12-13T22:54:55.045Z,100.00
2022-12-13T22:59:24.063Z,100.00
2022-12-13T23:01:54.302Z,100.00
2022-12-13T23:04:22.586Z,100.00
2022-12-13T23:06:50.448Z,100.00
2022-12-13T23:09:17.596Z,100.00
2022-12-13T23:12:03.046Z,100.00
2022-12-13T23:14:34.601Z,100.00
2022-12-13T23:17:05.340Z,100.00
2022-12-13T23:19:49.445Z,100.00
2022-12-13T23:22:25.711Z,100.00
2022-12-13T23:24:53.389Z,100.00
2022-12-13T23:27:22.031Z,100.00
2022-12-13T23:29:49.489Z,100.00
2022-12-13T23:32:16.967Z,100.00
2022-12-13T23:34:44.024Z,100.00
2022-12-13T23:37:11.350Z,100.00
2022-12-13T23:39:38.473Z,100.00
2022-12-13T23:42:05.418Z,100.00
2022-12-13T23:44:32.764Z,100.00
2022-12-13T23:47:01.972Z,100.00
2022-12-13T23:49:29.319Z,100.00
2022-12-13T23:51:56.421Z,100.00
2022-12-13T23:54:23.356Z,100.00
